createdAt,value
2019-03-02T00:00:39.563Z,1011.05
2019-03-02T00:01:39.576Z,1011.05
2019-03-02T00:02:39.592Z,1011.05
2019-03-02T00:03:39.609Z,1011.07
2019-03-02T00:04:41.927Z,1011.08
2019-03-02T00:05:39.638Z,1011.04
2019-03-02T00:06:39.669Z,1011.06
2019-03-02T00:07:39.667Z,1011.08
2019-03-02T00:08:39.682Z,1011.12
2019-03-02T00:09:39.697Z,1011.14
2019-03-02T00:11:39.728Z,1011.11
2019-03-02T00:12:39.755Z,1011.15
2019-03-02T00:13:43.303Z,1011.13
2019-03-02T00:14:39.772Z,1011.15
2019-03-02T00:15:39.788Z,1011.13
2019-03-02T00:16:43.233Z,1011.15
2019-03-02T00:17:39.818Z,1011.14
2019-03-02T00:18:39.833Z,1011.13
2019-03-02T00:19:41.880Z,1011.13
2019-03-02T00:20:39.862Z,1011.15
2019-03-02T00:21:39.878Z,1011.12
2019-03-02T00:22:43.380Z,1011.17
2019-03-02T00:23:39.907Z,1011.14
2019-03-02T00:24:39.923Z,1011.13
2019-03-02T00:25:39.938Z,1011.11
2019-03-02T00:26:42.826Z,1011.1
2019-03-02T00:27:39.967Z,1011.08
2019-03-02T00:28:39.982Z,1011.11
2019-03-02T00:29:42.471Z,1011.09
2019-03-02T00:30:40.012Z,1011.1
2019-03-02T00:31:40.027Z,1011.13
2019-03-02T00:32:41.498Z,1011.1
2019-03-02T00:33:40.058Z,1011.12
2019-03-02T00:34:40.089Z,1011.12
2019-03-02T00:35:43.614Z,1011.07
2019-03-02T00:36:40.102Z,1011.03
2019-03-02T00:37:40.117Z,1011.03
2019-03-02T00:38:40.585Z,1011.01
2019-03-02T00:39:40.148Z,1011.01
2019-03-02T00:40:40.163Z,1010.99
2019-03-02T00:41:42.099Z,1010.99
2019-03-02T00:43:40.208Z,1011.01
2019-03-02T00:44:40.224Z,1011.04
2019-03-02T00:45:40.238Z,1011.05
2019-03-02T00:46:40.253Z,1011.05
2019-03-02T00:47:40.268Z,1011.01
2019-03-02T00:48:43.529Z,1010.97
2019-03-02T00:49:40.297Z,1011
2019-03-02T00:50:40.313Z,1010.99
2019-03-02T00:51:42.596Z,1011.02
2019-03-02T00:52:40.346Z,1011.05
2019-03-02T00:53:40.359Z,1011.05
2019-03-02T00:54:43.332Z,1011.05
2019-03-02T00:55:40.400Z,1011.04
2019-03-02T00:56:42.783Z,1011.09
2019-03-02T00:57:40.418Z,1011.07
2019-03-02T00:59:40.448Z,1011.08
2019-03-02T01:00:40.462Z,1011.08
2019-03-02T01:01:40.478Z,1011.04
2019-03-02T01:02:40.575Z,1011.07
2019-03-02T01:03:40.507Z,1011.07
2019-03-02T01:04:40.522Z,1011.07
2019-03-02T01:05:40.538Z,1011.04
2019-03-02T01:06:40.553Z,1011
2019-03-02T01:07:40.567Z,1010.99
2019-03-02T01:08:40.582Z,1010.96
2019-03-02T01:09:43.570Z,1010.99
2019-03-02T01:10:40.613Z,1011.02
2019-03-02T01:11:40.628Z,1010.96
2019-03-02T01:12:43.757Z,1010.95
2019-03-02T01:13:40.657Z,1010.95
2019-03-02T01:15:43.898Z,1010.98
2019-03-02T01:16:40.703Z,1010.95
2019-03-02T01:17:40.717Z,1010.93
2019-03-02T01:18:42.366Z,1010.94
2019-03-02T01:19:40.749Z,1010.95
2019-03-02T01:20:40.762Z,1010.96
2019-03-02T01:21:41.211Z,1010.99
2019-03-02T01:22:40.791Z,1011
2019-03-02T01:23:40.808Z,1010.97
2019-03-02T01:24:40.822Z,1010.96
2019-03-02T01:25:40.836Z,1010.97
2019-03-02T01:26:40.851Z,1010.93
2019-03-02T01:27:40.867Z,1010.94
2019-03-02T01:28:41.596Z,1010.96
2019-03-02T01:29:40.896Z,1010.95
2019-03-02T01:31:41.724Z,1010.95
2019-03-02T01:32:40.941Z,1010.96
2019-03-02T01:33:40.956Z,1010.99
2019-03-02T01:34:42.233Z,1010.92
2019-03-02T01:35:40.986Z,1010.94
2019-03-02T01:36:41.001Z,1010.94
2019-03-02T01:37:43.849Z,1010.95
2019-03-02T01:38:41.031Z,1010.97
2019-03-02T01:39:41.046Z,1010.95
2019-03-02T01:40:41.642Z,1010.99
2019-03-02T01:41:41.075Z,1010.98
2019-03-02T01:42:41.090Z,1010.95
2019-03-02T01:43:41.443Z,1010.97
2019-03-02T01:44:41.120Z,1010.93
2019-03-02T01:46:41.631Z,1010.95
2019-03-02T01:47:41.169Z,1010.93
2019-03-02T01:48:41.180Z,1010.93
2019-03-02T01:49:41.195Z,1010.94
2019-03-02T01:50:43.752Z,1010.94
2019-03-02T01:51:41.225Z,1010.93
2019-03-02T01:52:41.240Z,1010.93
2019-03-02T01:53:41.797Z,1010.94
2019-03-02T01:54:41.270Z,1010.93
2019-03-02T01:55:41.284Z,1010.92
2019-03-02T01:56:42.520Z,1010.89
2019-03-02T01:57:41.314Z,1010.86
2019-03-02T01:58:41.329Z,1010.87
2019-03-02T01:59:41.344Z,1010.88
2019-03-02T02:00:41.361Z,1010.85
2019-03-02T02:01:41.374Z,1010.82
2019-03-02T02:02:41.388Z,1010.84
2019-03-02T02:03:43.580Z,1010.84
2019-03-02T02:04:41.419Z,1010.82
2019-03-02T02:05:41.434Z,1010.83
2019-03-02T02:06:42.738Z,1010.85
2019-03-02T02:07:41.463Z,1010.85
2019-03-02T02:08:41.478Z,1010.82
2019-03-02T02:09:41.539Z,1010.81
2019-03-02T02:10:43.313Z,1010.74
2019-03-02T02:11:41.523Z,1010.73
2019-03-02T02:12:41.538Z,1010.69
2019-03-02T02:13:42.791Z,1010.69
2019-03-02T02:14:41.568Z,1010.71
2019-03-02T02:15:41.583Z,1010.69
2019-03-02T02:16:41.980Z,1010.66
2019-03-02T02:18:41.627Z,1010.63
2019-03-02T02:19:41.643Z,1010.63
2019-03-02T02:20:41.657Z,1010.59
2019-03-02T02:21:41.672Z,1010.59
2019-03-02T02:22:41.687Z,1010.6
2019-03-02T02:23:41.702Z,1010.6
2019-03-02T02:24:41.719Z,1010.59
2019-03-02T02:25:41.731Z,1010.58
2019-03-02T02:26:43.832Z,1010.56
2019-03-02T02:27:41.761Z,1010.52
2019-03-02T02:28:41.776Z,1010.49
2019-03-02T02:29:43.482Z,1010.47
2019-03-02T02:30:41.808Z,1010.5
2019-03-02T02:31:44.966Z,1010.48
2019-03-02T02:32:41.836Z,1010.46
2019-03-02T02:34:41.871Z,1010.38
2019-03-02T02:35:41.886Z,1010.44
2019-03-02T02:36:41.896Z,1010.4
2019-03-02T02:37:41.913Z,1010.42
2019-03-02T02:38:41.926Z,1010.37
2019-03-02T02:39:41.942Z,1010.38
2019-03-02T02:40:41.958Z,1010.34
2019-03-02T02:41:41.972Z,1010.39
2019-03-02T02:42:43.135Z,1010.36
2019-03-02T02:43:42.001Z,1010.38
2019-03-02T02:44:42.017Z,1010.37
2019-03-02T02:45:42.032Z,1010.36
2019-03-02T02:46:42.045Z,1010.39
2019-03-02T02:47:50.159Z,1010.38
2019-03-02T02:48:42.078Z,1010.39
2019-03-02T02:50:42.999Z,1010.36
2019-03-02T02:51:44.289Z,1010.37
2019-03-02T02:52:42.142Z,1010.33
2019-03-02T02:53:44.998Z,1010.33
2019-03-02T02:54:42.165Z,1010.34
2019-03-02T02:55:42.303Z,1010.35
2019-03-02T02:56:42.198Z,1010.32
2019-03-02T02:57:42.211Z,1010.3
2019-03-02T02:58:42.226Z,1010.32
2019-03-02T02:59:42.281Z,1010.29
2019-03-02T03:00:42.254Z,1010.29
2019-03-02T03:01:42.281Z,1010.3
2019-03-02T03:02:42.289Z,1010.29
2019-03-02T03:03:42.300Z,1010.27
2019-03-02T03:04:42.314Z,1010.24
2019-03-02T03:06:42.347Z,1010.28
2019-03-02T03:07:42.379Z,1010.28
2019-03-02T03:08:42.378Z,1010.28
2019-03-02T03:09:45.247Z,1010.27
2019-03-02T03:10:42.404Z,1010.32
2019-03-02T03:11:44.326Z,1010.28
2019-03-02T03:12:42.435Z,1010.29
2019-03-02T03:13:42.473Z,1010.29
2019-03-02T03:14:42.464Z,1010.28
2019-03-02T03:15:42.480Z,1010.31
2019-03-02T03:16:42.495Z,1010.32
2019-03-02T03:17:42.509Z,1010.28
2019-03-02T03:18:46.871Z,1010.31
2019-03-02T03:19:42.541Z,1010.33
2019-03-02T03:21:42.570Z,1010.31
2019-03-02T03:22:45.961Z,1010.25
2019-03-02T03:23:42.609Z,1010.25
2019-03-02T03:24:42.620Z,1010.26
2019-03-02T03:25:42.631Z,1010.28
2019-03-02T03:26:42.644Z,1010.25
2019-03-02T03:27:47.389Z,1010.28
2019-03-02T03:28:42.675Z,1010.27
2019-03-02T03:29:44.370Z,1010.26
2019-03-02T03:30:42.708Z,1010.24
2019-03-02T03:31:42.719Z,1010.25
2019-03-02T03:32:54.126Z,1010.24
2019-03-02T03:33:46.563Z,1010.23
2019-03-02T03:34:42.764Z,1010.19
2019-03-02T03:35:42.779Z,1010.2
2019-03-02T03:36:42.794Z,1010.16
2019-03-02T03:37:50.414Z,1010.19
2019-03-02T03:38:42.838Z,1010.18
2019-03-02T03:39:46.250Z,1010.19
2019-03-02T03:40:42.852Z,1010.23
2019-03-02T03:41:44.651Z,1010.2
2019-03-02T03:42:42.882Z,1010.17
2019-03-02T03:43:44.328Z,1010.18
2019-03-02T03:44:42.912Z,1010.17
2019-03-02T03:45:44.893Z,1010.17
2019-03-02T03:46:42.945Z,1010.22
2019-03-02T03:47:42.961Z,1010.22
2019-03-02T03:48:42.972Z,1010.21
2019-03-02T03:49:42.987Z,1010.22
2019-03-02T03:50:43.002Z,1010.19
2019-03-02T03:51:43.017Z,1010.21
2019-03-02T03:53:43.047Z,1010.19
2019-03-02T03:54:45.366Z,1010.22
2019-03-02T03:55:43.076Z,1010.2
2019-03-02T03:56:44.435Z,1010.19
2019-03-02T03:57:43.107Z,1010.17
2019-03-02T03:58:43.133Z,1010.17
2019-03-02T03:59:43.135Z,1010.2
2019-03-02T04:00:43.151Z,1010.15
2019-03-02T04:01:43.165Z,1010.14
2019-03-02T04:02:43.180Z,1010.15
2019-03-02T04:03:46.909Z,1010.16
2019-03-02T04:04:43.210Z,1010.21
2019-03-02T04:05:46.965Z,1010.19
2019-03-02T04:06:43.239Z,1010.22
2019-03-02T04:07:48.127Z,1010.2
2019-03-02T04:09:46.811Z,1010.19
2019-03-02T04:10:43.298Z,1010.2
2019-03-02T04:11:43.498Z,1010.16
2019-03-02T04:12:43.328Z,1010.17
2019-03-02T04:13:44.694Z,1010.18
2019-03-02T04:14:43.358Z,1010.23
2019-03-02T04:15:43.622Z,1010.23
2019-03-02T04:16:43.389Z,1010.23
2019-03-02T04:17:43.407Z,1010.23
2019-03-02T04:18:43.417Z,1010.21
2019-03-02T04:19:43.432Z,1010.24
2019-03-02T04:20:45.590Z,1010.21
2019-03-02T04:21:43.463Z,1010.23
2019-03-02T04:22:44.585Z,1010.21
2019-03-02T04:23:43.493Z,1010.22
2019-03-02T04:25:43.522Z,1010.21
2019-03-02T04:26:43.539Z,1010.2
2019-03-02T04:27:43.553Z,1010.17
2019-03-02T04:28:43.566Z,1010.21
2019-03-02T04:29:48.773Z,1010.17
2019-03-02T04:30:43.597Z,1010.18
2019-03-02T04:31:48.129Z,1010.17
2019-03-02T04:32:43.625Z,1010.17
2019-03-02T04:33:44.666Z,1010.2
2019-03-02T04:34:43.655Z,1010.22
2019-03-02T04:35:43.669Z,1010.19
2019-03-02T04:36:47.244Z,1010.2
2019-03-02T04:37:43.699Z,1010.23
2019-03-02T04:38:43.714Z,1010.22
2019-03-02T04:39:46.292Z,1010.19
2019-03-02T04:41:43.759Z,1010.18
2019-03-02T04:42:46.392Z,1010.19
2019-03-02T04:43:43.787Z,1010.17
2019-03-02T04:44:43.803Z,1010.18
2019-03-02T04:45:43.824Z,1010.2
2019-03-02T04:46:43.831Z,1010.13
2019-03-02T04:47:43.847Z,1010.2
2019-03-02T04:48:43.862Z,1010.18
2019-03-02T04:49:43.876Z,1010.16
2019-03-02T04:50:43.891Z,1010.18
2019-03-02T04:51:43.905Z,1010.16
2019-03-02T04:52:46.537Z,1010.15
2019-03-02T04:53:43.938Z,1010.12
2019-03-02T04:54:43.951Z,1010.12
2019-03-02T04:56:43.981Z,1010.08
2019-03-02T04:57:43.996Z,1010.08
2019-03-02T04:58:46.898Z,1010.07
2019-03-02T04:59:44.024Z,1010.1
2019-03-02T05:00:44.040Z,1010.08
2019-03-02T05:01:46.184Z,1010.09
2019-03-02T05:02:44.069Z,1010.11
2019-03-02T05:03:44.083Z,1010.09
2019-03-02T05:04:44.098Z,1010.1
2019-03-02T05:05:44.240Z,1010.08
2019-03-02T05:06:44.128Z,1010.09
2019-03-02T05:07:44.143Z,1010.08
2019-03-02T05:08:44.158Z,1010.12
2019-03-02T05:09:44.171Z,1010.08
2019-03-02T05:10:44.186Z,1010.09
2019-03-02T05:11:44.202Z,1010.09
2019-03-02T05:12:44.216Z,1010.06
2019-03-02T05:13:44.230Z,1010.04
2019-03-02T05:14:44.245Z,1010.06
2019-03-02T05:15:44.260Z,1010.07
2019-03-02T05:16:44.277Z,1010.05
2019-03-02T05:17:44.300Z,1010.09
2019-03-02T05:18:44.304Z,1010.11
2019-03-02T05:19:44.318Z,1010.1
2019-03-02T05:20:44.333Z,1010.08
2019-03-02T05:21:44.451Z,1010.12
2019-03-02T05:22:44.363Z,1010.1
2019-03-02T05:23:44.377Z,1010.08
2019-03-02T05:24:44.467Z,1010.07
2019-03-02T05:25:44.507Z,1010.04
2019-03-02T05:26:44.420Z,1010.05
2019-03-02T05:28:44.450Z,1010.01
2019-03-02T05:29:44.465Z,1010.03
2019-03-02T05:30:44.479Z,1010.01
2019-03-02T05:31:44.494Z,1010
2019-03-02T05:32:47.654Z,1009.99
2019-03-02T05:33:44.523Z,1010.04
2019-03-02T05:34:44.538Z,1010.08
2019-03-02T05:35:47.694Z,1010.08
2019-03-02T05:36:44.567Z,1010.09
2019-03-02T05:37:44.584Z,1010.09
2019-03-02T05:38:44.596Z,1010.08
2019-03-02T05:39:44.611Z,1010.13
2019-03-02T05:40:44.626Z,1010.08
2019-03-02T05:41:44.641Z,1010.13
2019-03-02T05:42:48.461Z,1010.16
2019-03-02T05:44:44.684Z,1010.16
2019-03-02T05:45:44.699Z,1010.19
2019-03-02T05:46:44.713Z,1010.16
2019-03-02T05:47:44.734Z,1010.13
2019-03-02T05:48:44.742Z,1010.15
2019-03-02T05:49:44.757Z,1010.16
2019-03-02T05:50:44.771Z,1010.16
2019-03-02T05:51:44.787Z,1010.19
2019-03-02T05:52:44.804Z,1010.18
2019-03-02T05:53:44.817Z,1010.18
2019-03-02T05:54:44.830Z,1010.18
2019-03-02T05:55:44.845Z,1010.23
2019-03-02T05:56:44.861Z,1010.18
2019-03-02T05:57:44.875Z,1010.23
2019-03-02T05:58:47.636Z,1010.17
2019-03-02T06:00:44.919Z,1010.21
2019-03-02T06:01:44.932Z,1010.2
2019-03-02T06:02:44.950Z,1010.19
2019-03-02T06:03:45.969Z,1010.22
2019-03-02T06:04:45.843Z,1010.26
2019-03-02T06:05:44.993Z,1010.22
2019-03-02T06:06:45.005Z,1010.25
2019-03-02T06:07:45.019Z,1010.33
2019-03-02T06:08:45.033Z,1010.23
2019-03-02T06:09:46.811Z,1010.23
2019-03-02T06:10:45.063Z,1010.22
2019-03-02T06:11:45.078Z,1010.21
2019-03-02T06:12:47.861Z,1010.21
2019-03-02T06:13:45.108Z,1010.17
2019-03-02T06:14:45.121Z,1010.19
2019-03-02T06:16:45.152Z,1010.19
2019-03-02T06:17:45.170Z,1010.19
2019-03-02T06:18:45.447Z,1010.18
2019-03-02T06:19:45.194Z,1010.18
2019-03-02T06:20:45.211Z,1010.22
2019-03-02T06:21:46.275Z,1010.19
2019-03-02T06:22:45.238Z,1010.23
2019-03-02T06:23:45.253Z,1010.26
2019-03-02T06:24:45.268Z,1010.26
2019-03-02T06:25:45.286Z,1010.27
2019-03-02T06:26:45.296Z,1010.26
2019-03-02T06:27:47.004Z,1010.26
2019-03-02T06:28:45.326Z,1010.29
2019-03-02T06:29:45.342Z,1010.32
2019-03-02T06:31:45.371Z,1010.33
2019-03-02T06:32:45.389Z,1010.34
2019-03-02T06:33:45.409Z,1010.34
2019-03-02T06:34:45.414Z,1010.33
2019-03-02T06:35:45.429Z,1010.3
2019-03-02T06:36:46.017Z,1010.31
2019-03-02T06:37:45.459Z,1010.33
2019-03-02T06:38:45.473Z,1010.34
2019-03-02T06:39:45.487Z,1010.36
2019-03-02T06:40:45.504Z,1010.36
2019-03-02T06:41:45.522Z,1010.37
2019-03-02T06:42:46.564Z,1010.41
2019-03-02T06:43:45.546Z,1010.4
2019-03-02T06:44:45.562Z,1010.45
2019-03-02T06:45:45.576Z,1010.45
2019-03-02T06:46:45.590Z,1010.45
2019-03-02T06:47:45.604Z,1010.43
2019-03-02T06:48:45.901Z,1010.44
2019-03-02T06:49:45.634Z,1010.48
2019-03-02T06:50:45.648Z,1010.51
2019-03-02T06:51:47.212Z,1010.47
2019-03-02T06:52:45.679Z,1010.46
2019-03-02T06:53:45.694Z,1010.47
2019-03-02T06:54:48.259Z,1010.43
2019-03-02T06:55:45.722Z,1010.49
2019-03-02T06:56:45.737Z,1010.42
2019-03-02T06:57:49.801Z,1010.45
2019-03-02T06:58:45.766Z,1010.42
2019-03-02T06:59:45.781Z,1010.45
2019-03-02T07:00:48.829Z,1010.45
2019-03-02T07:01:45.810Z,1010.46
2019-03-02T07:03:46.752Z,1010.47
2019-03-02T07:04:45.855Z,1010.39
2019-03-02T07:05:45.869Z,1010.41
2019-03-02T07:06:46.848Z,1010.41
2019-03-02T07:07:45.902Z,1010.42
2019-03-02T07:08:45.914Z,1010.39
2019-03-02T07:09:46.153Z,1010.43
2019-03-02T07:10:45.943Z,1010.45
2019-03-02T07:11:45.959Z,1010.48
2019-03-02T07:12:46.936Z,1010.46
2019-03-02T07:13:45.989Z,1010.44
2019-03-02T07:14:46.009Z,1010.44
2019-03-02T07:15:46.018Z,1010.44
2019-03-02T07:16:46.031Z,1010.44
2019-03-02T07:17:46.047Z,1010.44
2019-03-02T07:19:48.548Z,1010.41
2019-03-02T07:20:46.094Z,1010.37
2019-03-02T07:21:46.106Z,1010.41
2019-03-02T07:22:48.581Z,1010.38
2019-03-02T07:23:46.136Z,1010.4
2019-03-02T07:24:46.151Z,1010.41
2019-03-02T07:25:46.166Z,1010.38
2019-03-02T07:26:46.181Z,1010.44
2019-03-02T07:27:46.196Z,1010.44
2019-03-02T07:28:46.211Z,1010.45
2019-03-02T07:29:46.226Z,1010.42
2019-03-02T07:30:46.243Z,1010.43
2019-03-02T07:31:46.256Z,1010.42
2019-03-02T07:32:46.271Z,1010.43
2019-03-02T07:33:46.287Z,1010.46
2019-03-02T07:35:46.318Z,1010.44
2019-03-02T07:36:46.331Z,1010.41
2019-03-02T07:37:46.347Z,1010.44
2019-03-02T07:38:46.361Z,1010.42
2019-03-02T07:39:46.376Z,1010.41
2019-03-02T07:40:47.095Z,1010.43
2019-03-02T07:41:46.406Z,1010.36
2019-03-02T07:42:46.424Z,1010.31
2019-03-02T07:43:47.580Z,1010.33
2019-03-02T07:44:46.454Z,1010.37
2019-03-02T07:45:46.466Z,1010.37
2019-03-02T07:46:47.866Z,1010.37
2019-03-02T07:47:46.501Z,1010.38
2019-03-02T07:48:46.512Z,1010.41
2019-03-02T07:49:49.755Z,1010.48
2019-03-02T07:51:46.557Z,1010.53
2019-03-02T07:52:49.649Z,1010.52
2019-03-02T07:53:46.587Z,1010.55
2019-03-02T07:54:56.199Z,1010.57
2019-03-02T07:55:46.620Z,1010.52
2019-03-02T07:56:46.632Z,1010.52
2019-03-02T07:57:46.647Z,1010.5
2019-03-02T07:58:46.663Z,1010.53
2019-03-02T07:59:46.678Z,1010.52
2019-03-02T08:00:46.699Z,1010.5
2019-03-02T08:01:48.720Z,1010.47
2019-03-02T08:02:46.726Z,1010.44
2019-03-02T08:03:46.738Z,1010.42
2019-03-02T08:04:46.754Z,1010.43
2019-03-02T08:06:46.785Z,1010.44
2019-03-02T08:07:46.799Z,1010.43
2019-03-02T08:08:49.193Z,1010.46
2019-03-02T08:09:46.830Z,1010.44
2019-03-02T08:10:46.846Z,1010.44
2019-03-02T08:11:48.946Z,1010.36
2019-03-02T08:12:46.877Z,1010.41
2019-03-02T08:13:46.891Z,1010.42
2019-03-02T08:14:47.785Z,1010.42
2019-03-02T08:15:47.021Z,1010.38
2019-03-02T08:16:46.937Z,1010.38
2019-03-02T08:17:48.983Z,1010.43
2019-03-02T08:18:46.966Z,1010.41
2019-03-02T08:19:48.389Z,1010.4
2019-03-02T08:20:47.001Z,1010.41
2019-03-02T08:21:47.013Z,1010.4
2019-03-02T08:22:47.075Z,1010.4
2019-03-02T08:23:47.044Z,1010.36
2019-03-02T08:24:47.059Z,1010.38
2019-03-02T08:25:47.074Z,1010.45
2019-03-02T08:26:47.089Z,1010.41
2019-03-02T08:27:47.105Z,1010.39
2019-03-02T08:28:47.121Z,1010.41
2019-03-02T08:29:47.135Z,1010.36
2019-03-02T08:30:47.151Z,1010.38
2019-03-02T08:31:47.167Z,1010.37
2019-03-02T08:32:47.182Z,1010.39
2019-03-02T08:33:47.197Z,1010.37
2019-03-02T08:34:47.214Z,1010.39
2019-03-02T08:35:48.276Z,1010.39
2019-03-02T08:36:50.229Z,1010.38
2019-03-02T08:38:47.275Z,1010.39
2019-03-02T08:39:47.915Z,1010.38
2019-03-02T08:40:47.305Z,1010.39
2019-03-02T08:41:47.320Z,1010.35
2019-03-02T08:42:47.336Z,1010.37
2019-03-02T08:43:47.352Z,1010.35
2019-03-02T08:44:47.367Z,1010.39
2019-03-02T08:45:47.382Z,1010.37
2019-03-02T08:46:47.399Z,1010.44
2019-03-02T08:47:47.414Z,1010.38
2019-03-02T08:48:47.429Z,1010.42
2019-03-02T08:49:47.444Z,1010.4
2019-03-02T08:50:49.699Z,1010.42
2019-03-02T08:51:47.475Z,1010.43
2019-03-02T08:52:47.501Z,1010.37
2019-03-02T08:54:47.532Z,1010.34
2019-03-02T08:55:47.538Z,1010.35
2019-03-02T08:56:47.830Z,1010.37
2019-03-02T08:57:47.573Z,1010.34
2019-03-02T08:58:47.585Z,1010.32
2019-03-02T08:59:47.600Z,1010.37
2019-03-02T09:00:47.616Z,1010.37
2019-03-02T09:01:48.988Z,1010.36
2019-03-02T09:02:47.651Z,1010.4
2019-03-02T09:03:47.663Z,1010.38
2019-03-02T09:04:50.733Z,1010.37
2019-03-02T09:05:51.386Z,1010.39
2019-03-02T09:06:47.710Z,1010.35
2019-03-02T09:07:47.726Z,1010.36
2019-03-02T09:08:47.742Z,1010.37
2019-03-02T09:10:49.112Z,1010.35
2019-03-02T09:11:47.796Z,1010.36
2019-03-02T09:12:47.805Z,1010.34
2019-03-02T09:13:47.820Z,1010.34
2019-03-02T09:14:48.969Z,1010.34
2019-03-02T09:15:47.894Z,1010.37
2019-03-02T09:16:47.868Z,1010.34
2019-03-02T09:17:50.051Z,1010.42
2019-03-02T09:18:47.901Z,1010.35
2019-03-02T09:19:47.915Z,1010.35
2019-03-02T09:20:47.930Z,1010.35
2019-03-02T09:21:48.920Z,1010.33
2019-03-02T09:22:47.963Z,1010.34
2019-03-02T09:23:47.979Z,1010.35
2019-03-02T09:24:49.092Z,1010.35
2019-03-02T09:26:48.025Z,1010.37
2019-03-02T09:27:48.042Z,1010.38
2019-03-02T09:28:48.056Z,1010.38
2019-03-02T09:29:48.073Z,1010.4
2019-03-02T09:30:48.089Z,1010.35
2019-03-02T09:31:48.105Z,1010.41
2019-03-02T09:32:50.834Z,1010.39
2019-03-02T09:33:48.136Z,1010.46
2019-03-02T09:34:49.547Z,1010.45
2019-03-02T09:35:48.596Z,1010.48
2019-03-02T09:36:48.184Z,1010.44
2019-03-02T09:37:48.200Z,1010.45
2019-03-02T09:38:49.983Z,1010.45
2019-03-02T09:39:48.232Z,1010.46
2019-03-02T09:41:48.268Z,1010.44
2019-03-02T09:42:48.380Z,1010.46
2019-03-02T09:43:48.403Z,1010.45
2019-03-02T09:44:49.985Z,1010.42
2019-03-02T09:45:49.211Z,1010.42
2019-03-02T09:46:48.344Z,1010.41
2019-03-02T09:47:50.889Z,1010.42
2019-03-02T09:48:48.379Z,1010.44
2019-03-02T09:49:48.393Z,1010.37
2019-03-02T09:50:48.408Z,1010.39
2019-03-02T09:51:49.205Z,1010.4
2019-03-02T09:52:48.441Z,1010.43
2019-03-02T09:53:48.456Z,1010.42
2019-03-02T09:54:48.472Z,1010.39
2019-03-02T09:55:51.837Z,1010.4
2019-03-02T09:56:48.505Z,1010.42
2019-03-02T09:57:48.593Z,1010.43
2019-03-02T09:58:48.536Z,1010.46
2019-03-02T09:59:48.552Z,1010.45
2019-03-02T10:00:48.567Z,1010.51
2019-03-02T10:01:48.584Z,1010.48
2019-03-02T10:02:49.990Z,1010.49
2019-03-02T10:03:48.617Z,1010.45
2019-03-02T10:04:48.632Z,1010.43
2019-03-02T10:05:49.838Z,1010.4
2019-03-02T10:06:50.356Z,1010.44
2019-03-02T10:07:48.684Z,1010.42
2019-03-02T10:08:49.022Z,1010.4
2019-03-02T10:09:48.714Z,1010.41
2019-03-02T10:10:48.728Z,1010.46
2019-03-02T10:11:48.844Z,1010.37
2019-03-02T10:13:48.777Z,1010.42
2019-03-02T10:14:48.793Z,1010.44
2019-03-02T10:15:48.810Z,1010.46
2019-03-02T10:16:48.825Z,1010.44
2019-03-02T10:17:48.841Z,1010.48
2019-03-02T10:18:49.609Z,1010.47
2019-03-02T10:19:48.876Z,1010.5
2019-03-02T10:20:48.889Z,1010.49
2019-03-02T10:21:48.906Z,1010.5
2019-03-02T10:22:48.921Z,1010.47
2019-03-02T10:23:48.940Z,1010.49
2019-03-02T10:24:49.735Z,1010.55
2019-03-02T10:25:48.971Z,1010.52
2019-03-02T10:26:48.987Z,1010.52
2019-03-02T10:27:49.002Z,1010.54
2019-03-02T10:29:49.487Z,1010.49
2019-03-02T10:30:49.056Z,1010.53
2019-03-02T10:31:49.068Z,1010.52
2019-03-02T10:32:51.763Z,1010.52
2019-03-02T10:33:49.099Z,1010.53
2019-03-02T10:34:49.115Z,1010.53
2019-03-02T10:35:49.558Z,1010.54
2019-03-02T10:36:49.148Z,1010.55
2019-03-02T10:37:49.164Z,1010.5
2019-03-02T10:38:51.798Z,1010.53
2019-03-02T10:39:49.197Z,1010.51
2019-03-02T10:40:49.213Z,1010.51
2019-03-02T10:41:49.231Z,1010.55
2019-03-02T10:42:49.245Z,1010.54
2019-03-02T10:43:49.262Z,1010.56
2019-03-02T10:45:49.294Z,1010.53
2019-03-02T10:46:49.677Z,1010.5
2019-03-02T10:47:49.327Z,1010.52
2019-03-02T10:48:49.343Z,1010.55
2019-03-02T10:49:49.365Z,1010.53
2019-03-02T10:50:49.376Z,1010.49
2019-03-02T10:51:49.395Z,1010.47
2019-03-02T10:52:49.922Z,1010.52
2019-03-02T10:53:49.424Z,1010.51
2019-03-02T10:54:49.441Z,1010.52
2019-03-02T10:55:49.457Z,1010.51
2019-03-02T10:56:49.475Z,1010.54
2019-03-02T10:57:49.490Z,1010.53
2019-03-02T10:58:49.509Z,1010.55
2019-03-02T10:59:51.676Z,1010.5
2019-03-02T11:01:49.555Z,1010.53
2019-03-02T11:02:51.892Z,1010.5
2019-03-02T11:03:49.587Z,1010.51
2019-03-02T11:04:49.605Z,1010.5
2019-03-02T11:05:52.821Z,1010.45
2019-03-02T11:06:49.637Z,1010.53
2019-03-02T11:07:50.573Z,1010.5
2019-03-02T11:08:49.669Z,1010.52
2019-03-02T11:09:49.686Z,1010.5
2019-03-02T11:10:52.157Z,1010.46
2019-03-02T11:11:49.721Z,1010.48
2019-03-02T11:12:49.736Z,1010.47
2019-03-02T11:13:51.748Z,1010.45
2019-03-02T11:14:49.769Z,1010.45
2019-03-02T11:16:49.802Z,1010.44
2019-03-02T11:17:49.818Z,1010.45
2019-03-02T11:18:49.834Z,1010.44
2019-03-02T11:19:49.851Z,1010.46
2019-03-02T11:20:49.867Z,1010.43
2019-03-02T11:21:49.883Z,1010.43
2019-03-02T11:22:49.900Z,1010.45
2019-03-02T11:23:49.916Z,1010.45
2019-03-02T11:24:49.933Z,1010.43
2019-03-02T11:25:49.949Z,1010.43
2019-03-02T11:26:49.967Z,1010.42
2019-03-02T11:27:51.031Z,1010.46
2019-03-02T11:28:49.997Z,1010.44
2019-03-02T11:29:51.114Z,1010.43
2019-03-02T11:30:50.031Z,1010.44
2019-03-02T11:31:50.048Z,1010.47
2019-03-02T11:32:52.562Z,1010.41
2019-03-02T11:33:50.081Z,1010.45
2019-03-02T11:34:50.097Z,1010.45
2019-03-02T11:35:50.113Z,1010.45
2019-03-02T11:36:50.365Z,1010.47
2019-03-02T11:37:50.153Z,1010.46
2019-03-02T11:38:50.163Z,1010.45
2019-03-02T11:39:53.190Z,1010.46
2019-03-02T11:40:50.195Z,1010.44
2019-03-02T11:41:50.212Z,1010.38
2019-03-02T11:42:50.230Z,1010.38
2019-03-02T11:43:52.026Z,1010.37
2019-03-02T11:44:50.261Z,1010.34
2019-03-02T11:45:50.277Z,1010.36
2019-03-02T11:46:50.293Z,1010.36
2019-03-02T11:48:56.821Z,1010.38
2019-03-02T11:49:50.343Z,1010.38
2019-03-02T11:50:50.821Z,1010.38
2019-03-02T11:51:50.376Z,1010.32
2019-03-02T11:52:50.595Z,1010.3
2019-03-02T11:53:51.988Z,1010.3
2019-03-02T11:54:50.430Z,1010.3
2019-03-02T11:55:50.442Z,1010.32
2019-03-02T11:56:50.459Z,1010.29
2019-03-02T11:57:53.788Z,1010.28
2019-03-02T11:58:50.491Z,1010.3
2019-03-02T11:59:50.509Z,1010.28
2019-03-02T12:00:50.525Z,1010.28
2019-03-02T12:01:50.541Z,1010.23
2019-03-02T12:02:50.558Z,1010.24
2019-03-02T12:04:52.168Z,1010.26
2019-03-02T12:05:50.609Z,1010.23
2019-03-02T12:06:50.625Z,1010.27
2019-03-02T12:07:50.645Z,1010.29
2019-03-02T12:08:50.658Z,1010.32
2019-03-02T12:09:50.676Z,1010.29
2019-03-02T12:10:50.693Z,1010.28
2019-03-02T12:11:50.714Z,1010.29
2019-03-02T12:12:51.204Z,1010.3
2019-03-02T12:13:50.745Z,1010.24
2019-03-02T12:14:50.760Z,1010.25
2019-03-02T12:15:50.776Z,1010.25
2019-03-02T12:16:50.793Z,1010.14
2019-03-02T12:17:50.825Z,1010.15
2019-03-02T12:18:51.004Z,1010.16
2019-03-02T12:20:50.861Z,1010.07
2019-03-02T12:21:54.026Z,1010.12
2019-03-02T12:22:50.894Z,1010.11
2019-03-02T12:23:50.910Z,1010.09
2019-03-02T12:24:50.927Z,1010.08
2019-03-02T12:25:50.944Z,1010.07
2019-03-02T12:26:50.961Z,1010.1
2019-03-02T12:27:50.977Z,1010.08
2019-03-02T12:28:50.997Z,1010.09
2019-03-02T12:29:51.013Z,1010.11
2019-03-02T12:30:51.030Z,1010.07
2019-03-02T12:31:51.045Z,1010.09
2019-03-02T12:32:51.062Z,1010.03
2019-03-02T12:33:53.975Z,1010.04
2019-03-02T12:34:51.097Z,1009.94
2019-03-02T12:36:53.112Z,1009.96
2019-03-02T12:37:51.156Z,1009.91
2019-03-02T12:38:51.170Z,1009.95
2019-03-02T12:39:51.182Z,1009.91
2019-03-02T12:40:51.200Z,1009.9
2019-03-02T12:41:52.538Z,1009.92
2019-03-02T12:42:51.234Z,1009.87
2019-03-02T12:43:51.251Z,1009.86
2019-03-02T12:44:54.141Z,1009.85
2019-03-02T12:45:51.285Z,1009.82
2019-03-02T12:46:51.748Z,1009.85
2019-03-02T12:47:51.320Z,1009.87